Banks, Idaho
Current Conditions -  °F | °C
As of 6:53 PM on Saturday 20 Dec 2014 (Local Time) from KBOI Reporting Station
Light Rain Light Rain  
Wind Chill: 36°   Ceiling: 2800
Heat Index: 41°   Visibility: 7mi
Dew Point: 39°   Wind: 7mph
Humidity: 93%   Direction: 120°ESE
Pressure: 29.95"   Gusts: NA
Location:  44.08°N, 116.13°W
Report Text: KBOI 210153Z 12006KT 7SM -RA FEW019 OVC028 05/04 A2995 RMK AO2 SLP148 P0010 T00500039
Loading
Personal Weather Stations






























Interactive Weather Map New forecast layout! Learn more

10-Day Weather Forecast

Advertisements
Track Severe Weather on mobile